sensor_id;sensor_type;location;lat;lon;timestamp;P1;durP1;ratioP1;P2;durP2;ratioP2
12635;SDS011;6383;50.830;7.210;2023-02-22T00:01:04;124.22;;;39.50;;
12635;SDS011;6383;50.830;7.210;2023-02-22T00:03:47;130.43;;;38.88;;
12635;SDS011;6383;50.830;7.210;2023-02-22T00:06:18;145.07;;;42.25;;
12635;SDS011;6383;50.830;7.210;2023-02-22T00:08:51;266.33;;;41.83;;
12635;SDS011;6383;50.830;7.210;2023-02-22T00:11:23;143.13;;;39.53;;
12635;SDS011;6383;50.830;7.210;2023-02-22T00:13:53;99.32;;;38.25;;
12635;SDS011;6383;50.830;7.210;2023-02-22T00:16:24;156.63;;;40.65;;
12635;SDS011;6383;50.830;7.210;2023-02-22T00:18:53;205.98;;;44.42;;
12635;SDS011;6383;50.830;7.210;2023-02-22T00:21:22;137.27;;;37.45;;
12635;SDS011;6383;50.830;7.210;2023-02-22T00:23:52;133.25;;;38.92;;
12635;SDS011;6383;50.830;7.210;2023-02-22T00:26:21;106.82;;;38.95;;
12635;SDS011;6383;50.830;7.210;2023-02-22T00:28:52;201.10;;;40.88;;
12635;SDS011;6383;50.830;7.210;2023-02-22T00:31:22;83.80;;;38.08;;
12635;SDS011;6383;50.830;7.210;2023-02-22T00:33:52;63.42;;;36.72;;
12635;SDS011;6383;50.830;7.210;2023-02-22T00:36:21;104.55;;;37.28;;
12635;SDS011;6383;50.830;7.210;2023-02-22T00:38:50;63.92;;;32.83;;
12635;SDS011;6383;50.830;7.210;2023-02-22T00:41:19;95.47;;;33.28;;
12635;SDS011;6383;50.830;7.210;2023-02-22T00:43:49;73.03;;;31.77;;
12635;SDS011;6383;50.830;7.210;2023-02-22T00:46:19;42.90;;;28.50;;
12635;SDS011;6383;50.830;7.210;2023-02-22T00:48:48;125.78;;;31.83;;
12635;SDS011;6383;50.830;7.210;2023-02-22T00:51:17;104.57;;;27.70;;
12635;SDS011;6383;50.830;7.210;2023-02-22T00:53:47;37.75;;;26.83;;
12635;SDS011;6383;50.830;7.210;2023-02-22T00:56:16;97.28;;;28.23;;
12635;SDS011;6383;50.830;7.210;2023-02-22T00:58:45;75.43;;;27.60;;
12635;SDS011;6383;50.830;7.210;2023-02-22T01:01:14;36.00;;;24.63;;
12635;SDS011;6383;50.830;7.210;2023-02-22T01:03:45;79.78;;;25.42;;
12635;SDS011;6383;50.830;7.210;2023-02-22T01:06:14;49.15;;;27.45;;
12635;SDS011;6383;50.830;7.210;2023-02-22T01:08:43;33.08;;;23.42;;
12635;SDS011;6383;50.830;7.210;2023-02-22T01:11:14;33.15;;;23.45;;
12635;SDS011;6383;50.830;7.210;2023-02-22T01:13:44;60.22;;;22.90;;
12635;SDS011;6383;50.830;7.210;2023-02-22T01:16:13;30.15;;;22.38;;
12635;SDS011;6383;50.830;7.210;2023-02-22T01:18:42;23.60;;;19.63;;
12635;SDS011;6383;50.830;7.210;2023-02-22T01:21:13;46.08;;;22.63;;
12635;SDS011;6383;50.830;7.210;2023-02-22T01:23:43;56.05;;;23.83;;
12635;SDS011;6383;50.830;7.210;2023-02-22T01:26:12;56.15;;;22.95;;
12635;SDS011;6383;50.830;7.210;2023-02-22T01:28:41;46.55;;;22.13;;
12635;SDS011;6383;50.830;7.210;2023-02-22T01:31:10;50.45;;;22.70;;
12635;SDS011;6383;50.830;7.210;2023-02-22T01:33:40;49.75;;;22.75;;
12635;SDS011;6383;50.830;7.210;2023-02-22T01:36:09;26.13;;;21.83;;
12635;SDS011;6383;50.830;7.210;2023-02-22T01:38:38;40.42;;;21.50;;
12635;SDS011;6383;50.830;7.210;2023-02-22T01:41:06;25.75;;;20.48;;
12635;SDS011;6383;50.830;7.210;2023-02-22T01:43:34;25.95;;;21.35;;
12635;SDS011;6383;50.830;7.210;2023-02-22T01:46:04;25.60;;;20.20;;
12635;SDS011;6383;50.830;7.210;2023-02-22T01:48:48;35.72;;;21.73;;
12635;SDS011;6383;50.830;7.210;2023-02-22T01:51:20;27.67;;;20.05;;
12635;SDS011;6383;50.830;7.210;2023-02-22T01:53:56;34.10;;;21.27;;
12635;SDS011;6383;50.830;7.210;2023-02-22T01:56:30;23.30;;;19.65;;
12635;SDS011;6383;50.830;7.210;2023-02-22T01:59:02;23.85;;;19.70;;
12635;SDS011;6383;50.830;7.210;2023-02-22T02:01:33;26.02;;;21.08;;
12635;SDS011;6383;50.830;7.210;2023-02-22T02:04:05;25.70;;;20.73;;
12635;SDS011;6383;50.830;7.210;2023-02-22T02:06:37;22.52;;;19.58;;
12635;SDS011;6383;50.830;7.210;2023-02-22T02:09:09;24.48;;;20.77;;
12635;SDS011;6383;50.830;7.210;2023-02-22T02:11:47;23.50;;;19.65;;
12635;SDS011;6383;50.830;7.210;2023-02-22T02:14:17;23.98;;;19.20;;
12635;SDS011;6383;50.830;7.210;2023-02-22T02:16:47;26.75;;;20.77;;
12635;SDS011;6383;50.830;7.210;2023-02-22T02:19:21;25.88;;;20.30;;
12635;SDS011;6383;50.830;7.210;2023-02-22T02:22:06;29.85;;;21.98;;
12635;SDS011;6383;50.830;7.210;2023-02-22T02:28:16;30.20;;;21.73;;
12635;SDS011;6383;50.830;7.210;2023-02-22T02:34:26;19.15;;;17.10;;
12635;SDS011;6383;50.830;7.210;2023-02-22T02:37:05;18.90;;;16.55;;
12635;SDS011;6383;50.830;7.210;2023-02-22T02:39:38;19.27;;;16.70;;
12635;SDS011;6383;50.830;7.210;2023-02-22T02:42:13;17.33;;;15.52;;
12635;SDS011;6383;50.830;7.210;2023-02-22T02:44:46;18.17;;;15.65;;
12635;SDS011;6383;50.830;7.210;2023-02-22T02:47:22;21.30;;;15.95;;
12635;SDS011;6383;50.830;7.210;2023-02-22T02:49:59;28.20;;;20.05;;
12635;SDS011;6383;50.830;7.210;2023-02-22T02:52:31;27.33;;;19.58;;
12635;SDS011;6383;50.830;7.210;2023-02-22T02:55:03;71.10;;;20.80;;
12635;SDS011;6383;50.830;7.210;2023-02-22T02:57:34;453.17;;;26.67;;
12635;SDS011;6383;50.830;7.210;2023-02-22T03:00:05;402.02;;;27.75;;
12635;SDS011;6383;50.830;7.210;2023-02-22T03:02:53;293.50;;;25.42;;
12635;SDS011;6383;50.830;7.210;2023-02-22T03:05:46;190.93;;;24.25;;
12635;SDS011;6383;50.830;7.210;2023-02-22T03:08:29;50.20;;;20.23;;
12635;SDS011;6383;50.830;7.210;2023-02-22T03:13:44;39.28;;;17.88;;
12635;SDS011;6383;50.830;7.210;2023-02-22T03:16:20;34.50;;;19.98;;
12635;SDS011;6383;50.830;7.210;2023-02-22T03:18:59;64.45;;;21.45;;
12635;SDS011;6383;50.830;7.210;2023-02-22T03:21:38;53.08;;;20.50;;
12635;SDS011;6383;50.830;7.210;2023-02-22T03:24:15;61.28;;;20.48;;
12635;SDS011;6383;50.830;7.210;2023-02-22T03:26:48;45.00;;;18.67;;
12635;SDS011;6383;50.830;7.210;2023-02-22T03:29:21;54.95;;;18.27;;
12635;SDS011;6383;50.830;7.210;2023-02-22T03:31:55;87.30;;;19.85;;
12635;SDS011;6383;50.830;7.210;2023-02-22T03:34:28;127.65;;;20.65;;
12635;SDS011;6383;50.830;7.210;2023-02-22T03:37:04;106.40;;;18.50;;
12635;SDS011;6383;50.830;7.210;2023-02-22T03:39:42;50.50;;;17.02;;
12635;SDS011;6383;50.830;7.210;2023-02-22T03:42:15;127.75;;;20.77;;
12635;SDS011;6383;50.830;7.210;2023-02-22T03:44:47;85.65;;;19.67;;
12635;SDS011;6383;50.830;7.210;2023-02-22T03:47:20;99.88;;;19.33;;
12635;SDS011;6383;50.830;7.210;2023-02-22T03:49:56;184.45;;;21.45;;
12635;SDS011;6383;50.830;7.210;2023-02-22T03:52:34;75.72;;;19.23;;
12635;SDS011;6383;50.830;7.210;2023-02-22T03:55:04;41.08;;;16.67;;
12635;SDS011;6383;50.830;7.210;2023-02-22T03:57:38;84.07;;;19.25;;
12635;SDS011;6383;50.830;7.210;2023-02-22T04:00:11;34.45;;;17.58;;
12635;SDS011;6383;50.830;7.210;2023-02-22T04:02:43;109.00;;;21.35;;
12635;SDS011;6383;50.830;7.210;2023-02-22T04:05:12;98.43;;;19.27;;
12635;SDS011;6383;50.830;7.210;2023-02-22T04:07:43;44.30;;;19.38;;
12635;SDS011;6383;50.830;7.210;2023-02-22T04:10:13;107.97;;;26.30;;
12635;SDS011;6383;50.830;7.210;2023-02-22T04:12:42;46.13;;;20.23;;
12635;SDS011;6383;50.830;7.210;2023-02-22T04:15:11;30.20;;;18.95;;
12635;SDS011;6383;50.830;7.210;2023-02-22T04:17:42;26.83;;;15.60;;
12635;SDS011;6383;50.830;7.210;2023-02-22T04:20:10;34.83;;;16.38;;
12635;SDS011;6383;50.830;7.210;2023-02-22T04:22:40;28.92;;;16.17;;
12635;SDS011;6383;50.830;7.210;2023-02-22T04:25:09;40.38;;;15.80;;
12635;SDS011;6383;50.830;7.210;2023-02-22T04:27:38;25.88;;;16.23;;
12635;SDS011;6383;50.830;7.210;2023-02-22T04:30:06;27.15;;;16.20;;
12635;SDS011;6383;50.830;7.210;2023-02-22T04:32:36;27.52;;;15.63;;
12635;SDS011;6383;50.830;7.210;2023-02-22T04:35:04;19.80;;;15.57;;
12635;SDS011;6383;50.830;7.210;2023-02-22T04:37:34;22.67;;;15.18;;
12635;SDS011;6383;50.830;7.210;2023-02-22T04:40:02;16.38;;;13.75;;
12635;SDS011;6383;50.830;7.210;2023-02-22T04:42:35;16.00;;;14.30;;
12635;SDS011;6383;50.830;7.210;2023-02-22T04:45:04;24.75;;;13.48;;
12635;SDS011;6383;50.830;7.210;2023-02-22T04:47:34;17.95;;;12.75;;
12635;SDS011;6383;50.830;7.210;2023-02-22T04:50:03;22.33;;;12.65;;
12635;SDS011;6383;50.830;7.210;2023-02-22T04:52:33;13.20;;;11.82;;
12635;SDS011;6383;50.830;7.210;2023-02-22T04:55:02;12.57;;;11.25;;
12635;SDS011;6383;50.830;7.210;2023-02-22T04:57:31;12.95;;;11.73;;
12635;SDS011;6383;50.830;7.210;2023-02-22T05:00:02;11.15;;;10.07;;
12635;SDS011;6383;50.830;7.210;2023-02-22T05:02:32;12.20;;;11.05;;
12635;SDS011;6383;50.830;7.210;2023-02-22T05:04:59;13.00;;;11.80;;
12635;SDS011;6383;50.830;7.210;2023-02-22T05:07:28;12.20;;;11.10;;
12635;SDS011;6383;50.830;7.210;2023-02-22T05:09:57;11.40;;;10.30;;
12635;SDS011;6383;50.830;7.210;2023-02-22T05:12:28;12.00;;;10.88;;
12635;SDS011;6383;50.830;7.210;2023-02-22T05:14:58;9.40;;;8.60;;
12635;SDS011;6383;50.830;7.210;2023-02-22T05:17:27;10.00;;;9.10;;
12635;SDS011;6383;50.830;7.210;2023-02-22T05:19:56;9.85;;;8.95;;
12635;SDS011;6383;50.830;7.210;2023-02-22T05:22:25;10.57;;;9.57;;
12635;SDS011;6383;50.830;7.210;2023-02-22T05:24:54;9.57;;;8.57;;
12635;SDS011;6383;50.830;7.210;2023-02-22T05:27:22;12.70;;;10.48;;
12635;SDS011;6383;50.830;7.210;2023-02-22T05:29:51;11.93;;;10.60;;
12635;SDS011;6383;50.830;7.210;2023-02-22T05:32:20;11.82;;;10.63;;
12635;SDS011;6383;50.830;7.210;2023-02-22T05:34:50;11.55;;;10.45;;
12635;SDS011;6383;50.830;7.210;2023-02-22T05:37:22;13.40;;;11.13;;
12635;SDS011;6383;50.830;7.210;2023-02-22T05:39:50;13.10;;;11.52;;
12635;SDS011;6383;50.830;7.210;2023-02-22T05:42:19;12.38;;;11.13;;
12635;SDS011;6383;50.830;7.210;2023-02-22T05:44:48;14.20;;;11.30;;
12635;SDS011;6383;50.830;7.210;2023-02-22T05:47:17;12.40;;;11.07;;
12635;SDS011;6383;50.830;7.210;2023-02-22T05:49:45;13.45;;;12.02;;
12635;SDS011;6383;50.830;7.210;2023-02-22T05:52:15;14.80;;;11.82;;
12635;SDS011;6383;50.830;7.210;2023-02-22T05:54:42;12.60;;;11.38;;
12635;SDS011;6383;50.830;7.210;2023-02-22T05:57:10;11.88;;;10.18;;
12635;SDS011;6383;50.830;7.210;2023-02-22T05:59:39;13.10;;;11.35;;
12635;SDS011;6383;50.830;7.210;2023-02-22T06:02:09;11.80;;;10.57;;
12635;SDS011;6383;50.830;7.210;2023-02-22T06:04:38;14.30;;;12.68;;
12635;SDS011;6383;50.830;7.210;2023-02-22T06:07:06;14.10;;;12.63;;
12635;SDS011;6383;50.830;7.210;2023-02-22T06:09:35;15.35;;;13.35;;
12635;SDS011;6383;50.830;7.210;2023-02-22T06:12:04;13.80;;;12.18;;
12635;SDS011;6383;50.830;7.210;2023-02-22T06:14:33;13.60;;;12.18;;
12635;SDS011;6383;50.830;7.210;2023-02-22T06:17:02;14.63;;;12.98;;
12635;SDS011;6383;50.830;7.210;2023-02-22T06:19:31;19.00;;;12.02;;
12635;SDS011;6383;50.830;7.210;2023-02-22T06:21:59;15.02;;;13.38;;
12635;SDS011;6383;50.830;7.210;2023-02-22T06:24:28;17.45;;;13.38;;
12635;SDS011;6383;50.830;7.210;2023-02-22T06:27:00;14.38;;;12.40;;
12635;SDS011;6383;50.830;7.210;2023-02-22T06:29:29;24.67;;;18.33;;
12635;SDS011;6383;50.830;7.210;2023-02-22T06:31:58;24.90;;;17.70;;
12635;SDS011;6383;50.830;7.210;2023-02-22T06:34:27;15.68;;;13.98;;
12635;SDS011;6383;50.830;7.210;2023-02-22T06:36:55;15.15;;;12.50;;
12635;SDS011;6383;50.830;7.210;2023-02-22T06:39:24;15.15;;;12.70;;
12635;SDS011;6383;50.830;7.210;2023-02-22T06:41:53;15.02;;;13.40;;
12635;SDS011;6383;50.830;7.210;2023-02-22T06:44:23;14.80;;;13.20;;
12635;SDS011;6383;50.830;7.210;2023-02-22T06:46:51;17.17;;;13.68;;
12635;SDS011;6383;50.830;7.210;2023-02-22T06:49:20;17.05;;;13.93;;
12635;SDS011;6383;50.830;7.210;2023-02-22T06:51:50;17.98;;;13.32;;
12635;SDS011;6383;50.830;7.210;2023-02-22T06:54:19;19.08;;;13.32;;
12635;SDS011;6383;50.830;7.210;2023-02-22T06:56:48;15.50;;;13.07;;
12635;SDS011;6383;50.830;7.210;2023-02-22T06:59:17;16.38;;;13.07;;
12635;SDS011;6383;50.830;7.210;2023-02-22T07:01:46;20.45;;;14.45;;
12635;SDS011;6383;50.830;7.210;2023-02-22T07:04:13;16.23;;;13.70;;
12635;SDS011;6383;50.830;7.210;2023-02-22T07:06:43;16.00;;;14.27;;
12635;SDS011;6383;50.830;7.210;2023-02-22T07:09:13;16.38;;;13.68;;
12635;SDS011;6383;50.830;7.210;2023-02-22T07:11:43;16.48;;;13.85;;
12635;SDS011;6383;50.830;7.210;2023-02-22T07:14:10;16.80;;;13.40;;
12635;SDS011;6383;50.830;7.210;2023-02-22T07:16:39;17.75;;;14.15;;
12635;SDS011;6383;50.830;7.210;2023-02-22T07:19:07;15.52;;;13.45;;
12635;SDS011;6383;50.830;7.210;2023-02-22T07:21:36;15.48;;;13.88;;
12635;SDS011;6383;50.830;7.210;2023-02-22T07:24:04;18.08;;;14.50;;
12635;SDS011;6383;50.830;7.210;2023-02-22T07:26:36;15.70;;;13.70;;
12635;SDS011;6383;50.830;7.210;2023-02-22T07:29:05;16.08;;;14.38;;
12635;SDS011;6383;50.830;7.210;2023-02-22T07:31:34;16.35;;;14.45;;
12635;SDS011;6383;50.830;7.210;2023-02-22T07:34:03;17.45;;;13.25;;
12635;SDS011;6383;50.830;7.210;2023-02-22T07:36:32;18.73;;;13.88;;
12635;SDS011;6383;50.830;7.210;2023-02-22T07:39:02;15.20;;;13.10;;
12635;SDS011;6383;50.830;7.210;2023-02-22T07:41:35;16.13;;;13.45;;
12635;SDS011;6383;50.830;7.210;2023-02-22T07:44:03;19.70;;;13.43;;
12635;SDS011;6383;50.830;7.210;2023-02-22T07:46:32;17.98;;;13.10;;
12635;SDS011;6383;50.830;7.210;2023-02-22T07:49:00;18.67;;;13.57;;
12635;SDS011;6383;50.830;7.210;2023-02-22T07:51:27;18.45;;;14.70;;
12635;SDS011;6383;50.830;7.210;2023-02-22T07:53:57;23.10;;;13.77;;
12635;SDS011;6383;50.830;7.210;2023-02-22T07:56:24;13.45;;;11.98;;
12635;SDS011;6383;50.830;7.210;2023-02-22T07:58:53;14.65;;;12.57;;
12635;SDS011;6383;50.830;7.210;2023-02-22T08:01:21;16.67;;;13.55;;
12635;SDS011;6383;50.830;7.210;2023-02-22T08:03:49;19.83;;;13.07;;
12635;SDS011;6383;50.830;7.210;2023-02-22T08:06:18;17.88;;;14.02;;
12635;SDS011;6383;50.830;7.210;2023-02-22T08:08:47;17.10;;;14.80;;
12635;SDS011;6383;50.830;7.210;2023-02-22T08:11:16;15.82;;;13.45;;
12635;SDS011;6383;50.830;7.210;2023-02-22T08:13:45;17.40;;;13.88;;
12635;SDS011;6383;50.830;7.210;2023-02-22T08:16:13;19.50;;;14.13;;
12635;SDS011;6383;50.830;7.210;2023-02-22T08:18:41;19.63;;;14.43;;
12635;SDS011;6383;50.830;7.210;2023-02-22T08:21:10;17.48;;;13.63;;
12635;SDS011;6383;50.830;7.210;2023-02-22T08:23:38;16.67;;;13.75;;
12635;SDS011;6383;50.830;7.210;2023-02-22T08:26:07;22.95;;;14.93;;
12635;SDS011;6383;50.830;7.210;2023-02-22T08:28:37;19.50;;;14.05;;
12635;SDS011;6383;50.830;7.210;2023-02-22T08:31:06;22.38;;;15.57;;
12635;SDS011;6383;50.830;7.210;2023-02-22T08:33:35;22.15;;;16.00;;
12635;SDS011;6383;50.830;7.210;2023-02-22T08:36:04;20.35;;;14.95;;
12635;SDS011;6383;50.830;7.210;2023-02-22T08:38:32;20.10;;;15.50;;
12635;SDS011;6383;50.830;7.210;2023-02-22T08:41:01;19.20;;;15.57;;
12635;SDS011;6383;50.830;7.210;2023-02-22T08:43:30;19.83;;;15.23;;
12635;SDS011;6383;50.830;7.210;2023-02-22T08:45:59;19.65;;;15.07;;
12635;SDS011;6383;50.830;7.210;2023-02-22T08:48:28;22.25;;;15.13;;
12635;SDS011;6383;50.830;7.210;2023-02-22T08:50:57;25.50;;;15.15;;
12635;SDS011;6383;50.830;7.210;2023-02-22T08:53:26;19.83;;;14.57;;
12635;SDS011;6383;50.830;7.210;2023-02-22T08:55:54;22.95;;;15.27;;
12635;SDS011;6383;50.830;7.210;2023-02-22T08:58:23;18.95;;;15.60;;
12635;SDS011;6383;50.830;7.210;2023-02-22T09:00:52;24.35;;;16.42;;
12635;SDS011;6383;50.830;7.210;2023-02-22T09:03:22;22.90;;;16.15;;
12635;SDS011;6383;50.830;7.210;2023-02-22T09:05:50;20.88;;;16.70;;
12635;SDS011;6383;50.830;7.210;2023-02-22T09:08:18;20.30;;;15.55;;
12635;SDS011;6383;50.830;7.210;2023-02-22T09:10:48;19.80;;;15.73;;
12635;SDS011;6383;50.830;7.210;2023-02-22T09:13:16;21.45;;;15.82;;
12635;SDS011;6383;50.830;7.210;2023-02-22T09:15:45;19.67;;;15.80;;
12635;SDS011;6383;50.830;7.210;2023-02-22T09:18:12;17.77;;;15.15;;
12635;SDS011;6383;50.830;7.210;2023-02-22T09:20:46;19.83;;;15.85;;
12635;SDS011;6383;50.830;7.210;2023-02-22T09:23:14;20.73;;;16.25;;
12635;SDS011;6383;50.830;7.210;2023-02-22T09:25:44;21.58;;;15.18;;
12635;SDS011;6383;50.830;7.210;2023-02-22T09:28:13;20.77;;;16.15;;
12635;SDS011;6383;50.830;7.210;2023-02-22T09:30:41;21.85;;;16.55;;
12635;SDS011;6383;50.830;7.210;2023-02-22T09:33:13;21.48;;;17.80;;
12635;SDS011;6383;50.830;7.210;2023-02-22T09:35:46;20.90;;;16.95;;
12635;SDS011;6383;50.830;7.210;2023-02-22T09:38:17;23.80;;;17.85;;
12635;SDS011;6383;50.830;7.210;2023-02-22T09:40:50;22.75;;;16.67;;
12635;SDS011;6383;50.830;7.210;2023-02-22T09:43:26;23.35;;;17.73;;
12635;SDS011;6383;50.830;7.210;2023-02-22T09:46:08;20.02;;;16.25;;
12635;SDS011;6383;50.830;7.210;2023-02-22T09:48:50;23.33;;;17.17;;
12635;SDS011;6383;50.830;7.210;2023-02-22T09:51:27;21.17;;;15.75;;
12635;SDS011;6383;50.830;7.210;2023-02-22T09:54:02;20.17;;;15.10;;
12635;SDS011;6383;50.830;7.210;2023-02-22T09:56:33;18.30;;;14.38;;
12635;SDS011;6383;50.830;7.210;2023-02-22T09:59:04;19.15;;;14.00;;
12635;SDS011;6383;50.830;7.210;2023-02-22T10:01:37;20.75;;;15.18;;
12635;SDS011;6383;50.830;7.210;2023-02-22T10:04:10;18.40;;;14.27;;
12635;SDS011;6383;50.830;7.210;2023-02-22T10:06:55;21.55;;;13.82;;
12635;SDS011;6383;50.830;7.210;2023-02-22T10:09:33;17.40;;;13.88;;
12635;SDS011;6383;50.830;7.210;2023-02-22T10:12:09;18.05;;;12.77;;
12635;SDS011;6383;50.830;7.210;2023-02-22T10:14:42;17.85;;;12.57;;
12635;SDS011;6383;50.830;7.210;2023-02-22T10:17:21;16.80;;;12.23;;
12635;SDS011;6383;50.830;7.210;2023-02-22T10:19:59;18.45;;;12.57;;
12635;SDS011;6383;50.830;7.210;2023-02-22T10:22:40;14.18;;;11.85;;
12635;SDS011;6383;50.830;7.210;2023-02-22T10:25:18;15.82;;;11.25;;
12635;SDS011;6383;50.830;7.210;2023-02-22T10:27:51;15.52;;;10.82;;
12635;SDS011;6383;50.830;7.210;2023-02-22T10:30:25;14.68;;;12.02;;
12635;SDS011;6383;50.830;7.210;2023-02-22T10:32:57;22.08;;;11.98;;
12635;SDS011;6383;50.830;7.210;2023-02-22T10:35:31;13.57;;;11.13;;
12635;SDS011;6383;50.830;7.210;2023-02-22T10:38:10;16.27;;;11.65;;
12635;SDS011;6383;50.830;7.210;2023-02-22T10:40:43;15.32;;;10.98;;
12635;SDS011;6383;50.830;7.210;2023-02-22T10:43:15;14.20;;;11.15;;
12635;SDS011;6383;50.830;7.210;2023-02-22T10:45:44;15.10;;;11.32;;
12635;SDS011;6383;50.830;7.210;2023-02-22T10:48:12;14.32;;;11.18;;
12635;SDS011;6383;50.830;7.210;2023-02-22T10:50:45;12.95;;;10.75;;
12635;SDS011;6383;50.830;7.210;2023-02-22T10:53:15;18.08;;;12.50;;
12635;SDS011;6383;50.830;7.210;2023-02-22T10:58:48;14.40;;;10.65;;
12635;SDS011;6383;50.830;7.210;2023-02-22T11:01:19;12.35;;;10.13;;
12635;SDS011;6383;50.830;7.210;2023-02-22T11:03:59;18.95;;;10.55;;
12635;SDS011;6383;50.830;7.210;2023-02-22T11:06:31;14.68;;;10.55;;
12635;SDS011;6383;50.830;7.210;2023-02-22T11:09:11;13.57;;;9.70;;
12635;SDS011;6383;50.830;7.210;2023-02-22T11:11:42;17.95;;;9.98;;
12635;SDS011;6383;50.830;7.210;2023-02-22T11:14:12;16.38;;;10.20;;
12635;SDS011;6383;50.830;7.210;2023-02-22T11:16:51;13.98;;;9.68;;
12635;SDS011;6383;50.830;7.210;2023-02-22T11:19:23;10.30;;;8.88;;
12635;SDS011;6383;50.830;7.210;2023-02-22T11:21:54;11.15;;;10.05;;
12635;SDS011;6383;50.830;7.210;2023-02-22T11:24:27;13.45;;;9.57;;
12635;SDS011;6383;50.830;7.210;2023-02-22T11:26:57;14.68;;;9.18;;
12635;SDS011;6383;50.830;7.210;2023-02-22T11:29:28;11.35;;;9.00;;
12635;SDS011;6383;50.830;7.210;2023-02-22T11:31:57;11.32;;;9.68;;
12635;SDS011;6383;50.830;7.210;2023-02-22T11:34:31;12.10;;;9.40;;
12635;SDS011;6383;50.830;7.210;2023-02-22T11:37:16;11.30;;;9.10;;
12635;SDS011;6383;50.830;7.210;2023-02-22T11:40:05;13.50;;;9.32;;
12635;SDS011;6383;50.830;7.210;2023-02-22T11:42:39;17.67;;;9.52;;
12635;SDS011;6383;50.830;7.210;2023-02-22T11:45:09;10.43;;;8.32;;
12635;SDS011;6383;50.830;7.210;2023-02-22T11:47:46;11.43;;;8.80;;
12635;SDS011;6383;50.830;7.210;2023-02-22T11:50:26;12.50;;;8.63;;
12635;SDS011;6383;50.830;7.210;2023-02-22T11:52:59;12.93;;;8.43;;
12635;SDS011;6383;50.830;7.210;2023-02-22T11:55:43;11.38;;;8.88;;
12635;SDS011;6383;50.830;7.210;2023-02-22T11:58:25;9.68;;;7.80;;
12635;SDS011;6383;50.830;7.210;2023-02-22T12:01:05;11.77;;;9.00;;
12635;SDS011;6383;50.830;7.210;2023-02-22T12:03:47;16.25;;;9.10;;
12635;SDS011;6383;50.830;7.210;2023-02-22T12:06:50;12.68;;;7.72;;
12635;SDS011;6383;50.830;7.210;2023-02-22T12:09:31;14.90;;;8.18;;
12635;SDS011;6383;50.830;7.210;2023-02-22T12:12:09;10.52;;;7.82;;
12635;SDS011;6383;50.830;7.210;2023-02-22T12:14:49;11.93;;;9.27;;
12635;SDS011;6383;50.830;7.210;2023-02-22T12:17:37;13.30;;;8.70;;
12635;SDS011;6383;50.830;7.210;2023-02-22T12:20:22;9.90;;;7.95;;
12635;SDS011;6383;50.830;7.210;2023-02-22T12:23:00;11.73;;;7.70;;
12635;SDS011;6383;50.830;7.210;2023-02-22T12:25:37;11.75;;;7.93;;
12635;SDS011;6383;50.830;7.210;2023-02-22T12:28:22;10.73;;;7.60;;
12635;SDS011;6383;50.830;7.210;2023-02-22T12:33:37;7.88;;;6.63;;
12635;SDS011;6383;50.830;7.210;2023-02-22T12:36:16;13.68;;;7.82;;
12635;SDS011;6383;50.830;7.210;2023-02-22T12:38:51;10.50;;;7.57;;
12635;SDS011;6383;50.830;7.210;2023-02-22T12:43:58;8.60;;;6.93;;
12635;SDS011;6383;50.830;7.210;2023-02-22T12:46:32;14.88;;;7.80;;
12635;SDS011;6383;50.830;7.210;2023-02-22T12:49:07;9.57;;;7.05;;
12635;SDS011;6383;50.830;7.210;2023-02-22T12:51:51;9.80;;;6.80;;
12635;SDS011;6383;50.830;7.210;2023-02-22T12:54:31;12.82;;;7.57;;
12635;SDS011;6383;50.830;7.210;2023-02-22T12:57:08;9.20;;;7.38;;
12635;SDS011;6383;50.830;7.210;2023-02-22T13:02:44;8.93;;;6.72;;
12635;SDS011;6383;50.830;7.210;2023-02-22T13:05:17;12.40;;;7.05;;
12635;SDS011;6383;50.830;7.210;2023-02-22T13:07:56;9.00;;;6.95;;
12635;SDS011;6383;50.830;7.210;2023-02-22T13:10:57;11.32;;;7.90;;
12635;SDS011;6383;50.830;7.210;2023-02-22T13:13:48;8.90;;;6.90;;
12635;SDS011;6383;50.830;7.210;2023-02-22T13:16:37;9.85;;;7.05;;
12635;SDS011;6383;50.830;7.210;2023-02-22T13:19:25;11.90;;;7.78;;
12635;SDS011;6383;50.830;7.210;2023-02-22T13:22:06;11.43;;;7.18;;
12635;SDS011;6383;50.830;7.210;2023-02-22T13:24:48;8.38;;;7.50;;
12635;SDS011;6383;50.830;7.210;2023-02-22T13:27:26;10.40;;;7.15;;
12635;SDS011;6383;50.830;7.210;2023-02-22T13:29:58;9.30;;;7.45;;
12635;SDS011;6383;50.830;7.210;2023-02-22T13:32:40;12.48;;;7.75;;
12635;SDS011;6383;50.830;7.210;2023-02-22T13:35:28;13.90;;;8.13;;
12635;SDS011;6383;50.830;7.210;2023-02-22T13:38:10;9.63;;;7.20;;
12635;SDS011;6383;50.830;7.210;2023-02-22T13:41:10;9.20;;;7.38;;
12635;SDS011;6383;50.830;7.210;2023-02-22T13:47:13;13.98;;;8.48;;
12635;SDS011;6383;50.830;7.210;2023-02-22T13:50:04;9.43;;;7.45;;
12635;SDS011;6383;50.830;7.210;2023-02-22T13:52:52;13.18;;;8.65;;
12635;SDS011;6383;50.830;7.210;2023-02-22T13:55:25;12.13;;;8.05;;
12635;SDS011;6383;50.830;7.210;2023-02-22T13:57:59;10.10;;;7.35;;
12635;SDS011;6383;50.830;7.210;2023-02-22T14:00:43;9.60;;;7.72;;
12635;SDS011;6383;50.830;7.210;2023-02-22T14:03:29;12.82;;;8.68;;
12635;SDS011;6383;50.830;7.210;2023-02-22T14:06:07;13.55;;;8.18;;
12635;SDS011;6383;50.830;7.210;2023-02-22T14:08:38;12.90;;;8.20;;
12635;SDS011;6383;50.830;7.210;2023-02-22T14:14:20;14.70;;;7.95;;
12635;SDS011;6383;50.830;7.210;2023-02-22T14:17:14;10.73;;;7.43;;
12635;SDS011;6383;50.830;7.210;2023-02-22T14:23:23;11.60;;;8.18;;
12635;SDS011;6383;50.830;7.210;2023-02-22T14:26:12;10.45;;;8.15;;
12635;SDS011;6383;50.830;7.210;2023-02-22T14:28:49;12.15;;;8.27;;
12635;SDS011;6383;50.830;7.210;2023-02-22T14:31:21;12.10;;;8.45;;
12635;SDS011;6383;50.830;7.210;2023-02-22T14:33:56;10.07;;;8.18;;
12635;SDS011;6383;50.830;7.210;2023-02-22T14:36:28;13.90;;;7.95;;
12635;SDS011;6383;50.830;7.210;2023-02-22T14:39:08;12.05;;;7.85;;
12635;SDS011;6383;50.830;7.210;2023-02-22T14:41:41;10.25;;;7.72;;
12635;SDS011;6383;50.830;7.210;2023-02-22T14:44:19;12.77;;;8.43;;
12635;SDS011;6383;50.830;7.210;2023-02-22T14:46:53;14.15;;;8.85;;
12635;SDS011;6383;50.830;7.210;2023-02-22T14:49:29;11.20;;;8.20;;
12635;SDS011;6383;50.830;7.210;2023-02-22T14:52:05;8.93;;;6.57;;
12635;SDS011;6383;50.830;7.210;2023-02-22T14:54:48;11.38;;;7.57;;
12635;SDS011;6383;50.830;7.210;2023-02-22T14:57:25;11.65;;;7.43;;
12635;SDS011;6383;50.830;7.210;2023-02-22T15:00:00;10.65;;;7.28;;
12635;SDS011;6383;50.830;7.210;2023-02-22T15:02:47;7.95;;;7.10;;
12635;SDS011;6383;50.830;7.210;2023-02-22T15:05:16;11.25;;;7.22;;
12635;SDS011;6383;50.830;7.210;2023-02-22T15:07:49;12.68;;;7.13;;
12635;SDS011;6383;50.830;7.210;2023-02-22T15:10:22;12.30;;;6.97;;
12635;SDS011;6383;50.830;7.210;2023-02-22T15:12:55;11.10;;;6.78;;
12635;SDS011;6383;50.830;7.210;2023-02-22T15:15:35;10.82;;;7.18;;
12635;SDS011;6383;50.830;7.210;2023-02-22T15:18:09;8.38;;;6.10;;
12635;SDS011;6383;50.830;7.210;2023-02-22T15:20:45;9.43;;;7.53;;
12635;SDS011;6383;50.830;7.210;2023-02-22T15:23:26;8.38;;;6.78;;
12635;SDS011;6383;50.830;7.210;2023-02-22T15:26:00;10.60;;;7.03;;
12635;SDS011;6383;50.830;7.210;2023-02-22T15:28:29;6.82;;;5.65;;
12635;SDS011;6383;50.830;7.210;2023-02-22T15:33:41;10.77;;;6.80;;
12635;SDS011;6383;50.830;7.210;2023-02-22T15:36:12;8.27;;;6.72;;
12635;SDS011;6383;50.830;7.210;2023-02-22T15:38:46;9.53;;;6.97;;
12635;SDS011;6383;50.830;7.210;2023-02-22T15:41:20;11.63;;;7.03;;
12635;SDS011;6383;50.830;7.210;2023-02-22T15:43:56;10.07;;;7.88;;
12635;SDS011;6383;50.830;7.210;2023-02-22T15:46:30;7.28;;;6.28;;